createdAt,value
2018-08-23T00:01:39.060Z,101266.41
2018-08-23T00:04:10.272Z,101262.20
2018-08-23T00:06:54.010Z,101266.67
2018-08-23T00:09:24.616Z,101259.61
2018-08-23T00:11:57.207Z,101263.27
2018-08-23T00:14:30.207Z,101257.30
2018-08-23T00:17:00.365Z,101254.84
2018-08-23T00:19:31.170Z,101250.63
2018-08-23T00:22:02.781Z,101253.01
2018-08-23T00:24:33.591Z,101252.58
2018-08-23T00:27:06.783Z,101251.47
2018-08-23T00:29:36.760Z,101243.55
2018-08-23T00:32:08.263Z,101244.71
2018-08-23T00:34:40.960Z,101240.70
2018-08-23T00:37:14.048Z,101233.66
2018-08-23T00:39:44.095Z,101240.12
2018-08-23T00:42:15.887Z,101233.57
2018-08-23T00:45:03.738Z,101240.89
2018-08-23T00:47:34.984Z,101238.25
2018-08-23T00:50:07.623Z,101228.05
2018-08-23T00:52:46.346Z,101225.35
2018-08-23T00:55:28.057Z,101230.69
2018-08-23T00:57:59.100Z,101229.81
2018-08-23T01:00:32.698Z,101232.16
2018-08-23T01:03:04.567Z,101222.63
2018-08-23T01:05:40.377Z,101229.44
2018-08-23T01:08:12.849Z,101220.55
2018-08-23T01:10:46.975Z,101217.27
2018-08-23T01:13:17.446Z,101213.55
2018-08-23T01:15:50.392Z,101213.13
2018-08-23T01:18:21.452Z,101219.50
2018-08-23T01:20:53.071Z,101218.61
2018-08-23T01:23:25.985Z,101217.97
2018-08-23T01:25:56.096Z,101219.78
2018-08-23T01:28:28.140Z,101218.75
2018-08-23T01:31:10.988Z,101215.06
2018-08-23T01:33:41.273Z,101205.69
2018-08-23T01:36:11.539Z,101208.41
2018-08-23T01:38:41.865Z,101204.84
2018-08-23T01:41:13.539Z,101205.29
2018-08-23T01:43:46.107Z,101206.05
2018-08-23T01:46:16.225Z,101200.09
2018-08-23T01:48:53.764Z,101199.56
2018-08-23T01:51:30.191Z,101194.02
2018-08-23T01:54:00.448Z,101190.17
2018-08-23T01:56:35.193Z,101187.07
2018-08-23T01:59:05.683Z,101183.50
2018-08-23T02:01:36.911Z,101186.95
2018-08-23T02:04:09.864Z,101176.84
2018-08-23T02:06:40.436Z,101185.47
2018-08-23T02:09:12.961Z,101181.38
2018-08-23T02:11:43.166Z,101182.99
2018-08-23T02:14:13.309Z,101180.64
2018-08-23T02:16:53.547Z,101185.39
2018-08-23T02:19:25.775Z,101182.68
2018-08-23T02:21:57.817Z,101183.29
2018-08-23T02:24:32.548Z,101177.24
2018-08-23T02:27:02.552Z,101167.35
2018-08-23T02:29:41.976Z,101168.27
2018-08-23T02:32:13.494Z,101162.45
2018-08-23T02:34:48.216Z,101163.38
2018-08-23T02:37:20.629Z,101169.36
2018-08-23T02:39:50.672Z,101167.09
2018-08-23T02:42:22.760Z,101167.27
2018-08-23T02:45:03.066Z,101163.25
2018-08-23T02:47:33.699Z,101163.13
2018-08-23T02:50:06.934Z,101159.95
2018-08-23T02:52:37.734Z,101157.08
2018-08-23T02:55:09.953Z,101157.55
2018-08-23T02:57:49.288Z,101162.16
2018-08-23T03:00:23.564Z,101157.58
2018-08-23T03:02:55.110Z,101159.47
2018-08-23T03:05:24.956Z,101159.18
2018-08-23T03:07:55.754Z,101154.28
2018-08-23T03:10:25.888Z,101160.30
2018-08-23T03:12:55.978Z,101157.55
2018-08-23T03:15:26.098Z,101158.64
2018-08-23T03:17:58.438Z,101161.63
2018-08-23T03:20:28.739Z,101158.85
2018-08-23T03:23:01.241Z,101160.50
2018-08-23T03:25:32.103Z,101163.84
2018-08-23T03:28:05.413Z,101162.03
2018-08-23T03:30:36.708Z,101168.73
2018-08-23T03:33:06.985Z,101164.24
2018-08-23T03:35:37.106Z,101169.20
2018-08-23T03:38:09.707Z,101158.99
2018-08-23T03:40:40.828Z,101158.34
2018-08-23T03:43:11.337Z,101155.30
2018-08-23T03:45:42.209Z,101158.73
2018-08-23T03:48:13.571Z,101152.86
2018-08-23T03:50:49.622Z,101148.80
2018-08-23T03:53:33.486Z,101150.83
2018-08-23T03:56:23.972Z,101155.42
2018-08-23T03:59:15.853Z,101155.55
2018-08-23T04:15:39.705Z,101143.90
2018-08-23T04:18:17.122Z,101141.04
2018-08-23T04:20:56.968Z,101137.71
2018-08-23T04:23:28.577Z,101148.19
2018-08-23T04:25:59.959Z,101127.72
2018-08-23T04:28:31.517Z,101123.27
2018-08-23T04:31:03.037Z,101128.75
2018-08-23T04:33:32.985Z,101132.98
2018-08-23T04:36:04.176Z,101132.87
2018-08-23T04:38:36.981Z,101138.28
2018-08-23T04:41:11.345Z,101135.26
2018-08-23T04:43:43.196Z,101134.75
2018-08-23T04:46:18.234Z,101133.23
2018-08-23T04:48:48.620Z,101131.26
2018-08-23T04:51:20.721Z,101129.95
2018-08-23T04:53:52.375Z,101131.14
2018-08-23T04:56:23.245Z,101133.40
2018-08-23T04:58:54.257Z,101131.31
2018-08-23T05:01:24.635Z,101122.28
2018-08-23T05:03:56.344Z,101121.93
2018-08-23T05:06:27.366Z,101122.16
2018-08-23T05:08:58.546Z,101120.46
2018-08-23T05:11:28.852Z,101118.47
2018-08-23T05:13:59.143Z,101117.75
2018-08-23T05:16:30.430Z,101117.55
2018-08-23T05:19:00.663Z,101113.56
2018-08-23T05:21:32.519Z,101116.19
2018-08-23T05:24:07.445Z,101111.86
2018-08-23T05:26:37.832Z,101108.89
2018-08-23T05:29:11.418Z,101111.22
2018-08-23T05:31:42.496Z,101110.97
2018-08-23T05:34:13.050Z,101107.91
2018-08-23T05:36:44.187Z,101115.66
2018-08-23T05:39:15.949Z,101116.06
2018-08-23T05:41:48.554Z,101108.55
2018-08-23T05:44:21.917Z,101105.96
2018-08-23T05:46:56.943Z,101106.34
2018-08-23T05:49:27.279Z,101111.78
2018-08-23T05:52:01.523Z,101109.48
2018-08-23T05:54:33.080Z,101112.45
2018-08-23T05:57:04.448Z,101110.84
2018-08-23T05:59:35.438Z,101113.44
2018-08-23T06:02:11.896Z,101109.98
2018-08-23T06:04:44.464Z,101115.55
2018-08-23T06:07:15.527Z,101117.16
2018-08-23T06:09:46.758Z,101114.19
2018-08-23T06:12:18.480Z,101113.48
2018-08-23T06:14:50.512Z,101114.55
2018-08-23T06:19:49.133Z,101118.75
2018-08-23T06:22:24.132Z,101106.47
2018-08-23T06:24:54.592Z,101101.92
2018-08-23T06:27:25.081Z,101103.41
2018-08-23T06:29:56.316Z,101103.81
2018-08-23T06:32:30.289Z,101102.32
2018-08-23T06:35:05.210Z,101102.58
2018-08-23T06:37:38.482Z,101097.63
2018-08-23T06:40:10.983Z,101099.73
2018-08-23T06:42:52.225Z,101093.03
2018-08-23T06:45:24.389Z,101089.33
2018-08-23T06:48:00.122Z,101089.55
2018-08-23T06:50:31.063Z,101086.72
2018-08-23T06:53:03.675Z,101091.56
2018-08-23T06:55:38.489Z,101089.81
2018-08-23T06:58:11.363Z,101086.09
2018-08-23T07:00:41.948Z,101087.19
2018-08-23T07:03:12.914Z,101084.09
2018-08-23T07:05:45.507Z,101085.21
2018-08-23T07:08:16.681Z,101088.07
2018-08-23T07:10:49.877Z,101078.24
2018-08-23T07:13:22.950Z,101069.03
2018-08-23T07:16:00.541Z,101067.08
2018-08-23T07:18:35.558Z,101064.37
2018-08-23T07:21:07.359Z,101069.22
2018-08-23T07:23:40.283Z,101065.71
2018-08-23T07:26:12.308Z,101068.20
2018-08-23T07:28:43.942Z,101071.73
2018-08-23T07:31:43.734Z,101073.78
2018-08-23T07:34:16.308Z,101071.12
2018-08-23T07:36:48.064Z,101072.21
2018-08-23T07:39:18.914Z,101073.55
2018-08-23T07:41:49.109Z,101078.65
2018-08-23T07:44:19.979Z,101071.32
2018-08-23T07:46:51.080Z,101071.37
2018-08-23T07:49:22.248Z,101071.36
2018-08-23T07:51:53.925Z,101070.72
2018-08-23T07:54:30.908Z,101072.32
2018-08-23T07:57:01.137Z,101061.96
2018-08-23T07:59:31.934Z,101061.55
2018-08-23T08:02:03.522Z,101065.06
2018-08-23T08:04:34.142Z,101066.39
2018-08-23T08:07:04.830Z,101056.92
2018-08-23T08:09:36.324Z,101061.76
2018-08-23T08:12:07.051Z,101054.73
2018-08-23T08:14:39.320Z,101063.02
2018-08-23T08:17:18.391Z,101064.55
2018-08-23T08:19:59.705Z,101061.06
2018-08-23T08:22:30.232Z,101063.05
2018-08-23T08:25:32.510Z,101067.37
2018-08-23T08:28:02.832Z,101062.38
2018-08-23T08:31:01.913Z,101062.34
2018-08-23T08:33:39.562Z,101061.66
2018-08-23T08:36:09.787Z,101071.88
2018-08-23T08:38:40.130Z,101064.83
2018-08-23T08:41:10.371Z,101064.83
2018-08-23T08:43:44.061Z,101070.95
2018-08-23T08:46:14.812Z,101063.19
2018-08-23T08:48:45.519Z,101063.46
2018-08-23T08:51:28.534Z,101062.16
2018-08-23T08:54:01.573Z,101059.38
2018-08-23T08:56:37.302Z,101064.08
2018-08-23T08:59:08.029Z,101052.52
2018-08-23T09:01:44.676Z,101056.91
2018-08-23T09:04:21.745Z,101051.36
2018-08-23T09:06:56.468Z,101051.45
2018-08-23T09:09:40.967Z,101044.20
2018-08-23T09:12:14.506Z,101042.66
2018-08-23T09:14:46.938Z,101036.20
2018-08-23T09:17:51.953Z,101032.92
2018-08-23T09:20:23.190Z,101026.07
2018-08-23T09:22:56.958Z,101020.17
2018-08-23T09:25:33.707Z,101014.00
2018-08-23T09:28:04.914Z,101012.31
2018-08-23T09:30:38.636Z,101009.78
2018-08-23T09:33:16.059Z,101005.70
2018-08-23T09:35:49.352Z,101013.70
2018-08-23T09:38:23.573Z,101003.42
2018-08-23T09:40:57.245Z,100993.18
2018-08-23T09:43:34.604Z,100987.44
2018-08-23T09:46:09.547Z,100987.33
2018-08-23T09:48:43.320Z,100983.75
2018-08-23T09:51:22.603Z,100975.64
2018-08-23T09:53:54.813Z,100981.33
2018-08-23T09:56:31.686Z,100976.52
2018-08-23T09:59:08.613Z,100970.53
2018-08-23T10:01:47.302Z,100968.02
2018-08-23T10:04:29.675Z,100962.36
2018-08-23T10:10:16.953Z,100955.95
2018-08-23T10:12:58.078Z,100954.47
2018-08-23T10:15:34.421Z,100950.48
2018-08-23T10:18:15.620Z,100948.18
2018-08-23T10:20:52.756Z,100940.44
2018-08-23T10:23:25.611Z,100946.39
2018-08-23T10:25:58.451Z,100945.30
2018-08-23T10:29:00.164Z,100944.84
2018-08-23T10:31:30.257Z,100938.76
2018-08-23T10:34:00.674Z,100929.66
2018-08-23T10:36:31.192Z,100931.34
2018-08-23T10:39:02.797Z,100931.95
2018-08-23T10:41:33.581Z,100922.77
2018-08-23T10:44:04.643Z,100920.61
2018-08-23T10:46:41.171Z,100921.92
2018-08-23T10:49:11.513Z,100924.35
2018-08-23T10:51:42.346Z,100920.35
2018-08-23T10:54:12.407Z,100920.85
2018-08-23T10:56:42.489Z,100916.86
2018-08-23T10:59:13.650Z,100919.67
2018-08-23T11:01:44.920Z,100914.61
2018-08-23T11:04:16.552Z,100912.49
2018-08-23T11:06:51.644Z,100906.16
2018-08-23T11:09:27.054Z,100908.18
2018-08-23T11:11:57.707Z,100908.02
2018-08-23T11:14:32.808Z,100916.55
2018-08-23T11:17:08.583Z,100906.50
2018-08-23T11:19:43.926Z,100907.05
2018-08-23T11:22:14.223Z,100910.64
2018-08-23T11:24:47.631Z,100909.27
2018-08-23T11:27:17.679Z,100893.23
2018-08-23T11:29:48.162Z,100893.85
2018-08-23T11:32:19.164Z,100889.75
2018-08-23T11:34:49.471Z,100889.92
2018-08-23T11:37:20.301Z,100887.30
2018-08-23T11:39:51.848Z,100890.27
2018-08-23T11:42:22.113Z,100887.29
2018-08-23T11:44:52.781Z,100880.09
2018-08-23T11:47:22.915Z,100877.19
2018-08-23T11:49:53.468Z,100880.92
2018-08-23T11:52:23.721Z,100878.94
2018-08-23T11:54:53.960Z,100878.23
2018-08-23T11:57:24.019Z,100872.22
2018-08-23T11:59:54.369Z,100884.56
2018-08-23T12:02:24.475Z,100875.01
2018-08-23T12:04:54.343Z,100875.89
2018-08-23T12:07:24.771Z,100881.74
2018-08-23T12:09:55.003Z,100870.59
2018-08-23T12:12:25.294Z,100876.33
2018-08-23T12:14:55.484Z,100871.02
2018-08-23T12:17:25.487Z,100874.61
2018-08-23T12:19:55.824Z,100867.94
2018-08-23T12:22:33.081Z,100859.73
2018-08-23T12:25:10.612Z,100859.24
2018-08-23T12:27:43.392Z,100851.64
2018-08-23T12:30:15.321Z,100855.91
2018-08-23T12:32:47.134Z,100847.01
2018-08-23T12:35:17.332Z,100834.91
2018-08-23T12:39:00.018Z,100843.06
2018-08-23T12:41:36.629Z,100844.08
2018-08-23T12:44:09.108Z,100836.87
2018-08-23T12:46:43.957Z,100841.58
2018-08-23T12:49:15.462Z,100841.14
2018-08-23T12:51:47.512Z,100842.83
2018-08-23T12:54:21.276Z,100830.91
2018-08-23T12:56:53.931Z,100839.41
2018-08-23T12:59:24.143Z,100835.24
2018-08-23T13:02:06.176Z,100830.59
2018-08-23T13:04:40.796Z,100836.05
2018-08-23T13:07:11.574Z,100832.80
2018-08-23T13:09:42.985Z,100831.38
2018-08-23T13:12:13.216Z,100830.37
2018-08-23T13:14:43.284Z,100834.28
2018-08-23T13:17:14.346Z,100827.44
2018-08-23T13:19:44.583Z,100818.93
2018-08-23T13:25:12.236Z,100814.13
2018-08-23T13:27:42.670Z,100814.34
2018-08-23T13:30:12.772Z,100815.76
2018-08-23T13:32:43.107Z,100807.59
2018-08-23T13:35:13.158Z,100811.52
2018-08-23T13:37:43.758Z,100814.13
2018-08-23T13:40:18.066Z,100814.45
2018-08-23T13:42:49.726Z,100801.65
2018-08-23T13:45:19.842Z,100805.16
2018-08-23T13:47:52.267Z,100801.12
2018-08-23T13:50:22.934Z,100804.70
2018-08-23T13:52:53.163Z,100814.41
2018-08-23T13:55:24.689Z,100805.17
2018-08-23T13:57:54.737Z,100807.38
2018-08-23T14:00:29.554Z,100790.96
2018-08-23T14:03:00.595Z,100801.84
2018-08-23T14:05:31.645Z,100802.78
2018-08-23T14:08:02.899Z,100803.58
2018-08-23T14:10:33.045Z,100798.11
2018-08-23T14:13:03.943Z,100799.54
2018-08-23T14:15:39.233Z,100799.05
2018-08-23T14:18:09.400Z,100798.92
2018-08-23T14:20:40.116Z,100797.94
2018-08-23T14:23:10.463Z,100796.92
2018-08-23T14:25:40.918Z,100789.41
2018-08-23T14:28:11.347Z,100791.14
2018-08-23T14:30:41.813Z,100797.45
2018-08-23T14:33:12.159Z,100769.15
2018-08-23T14:35:42.589Z,100794.94
2018-08-23T14:38:12.752Z,100789.87
2018-08-23T14:40:43.234Z,100797.91
2018-08-23T14:43:13.787Z,100781.53
2018-08-23T14:45:44.047Z,100792.80
2018-08-23T14:48:16.696Z,100799.27
2018-08-23T14:50:50.888Z,100793.80
2018-08-23T14:56:22.797Z,100800.36
2018-08-23T14:58:52.908Z,100785.09
2018-08-23T15:01:23.963Z,100788.94
2018-08-23T15:03:54.959Z,100788.70
2018-08-23T15:06:24.924Z,100781.77
2018-08-23T15:08:54.583Z,100782.37
2018-08-23T15:11:24.596Z,100783.64
2018-08-23T15:13:56.134Z,100776.51
2018-08-23T15:16:25.973Z,100775.47
2018-08-23T15:18:55.596Z,100780.11
2018-08-23T15:21:25.595Z,100769.83
2018-08-23T15:23:59.170Z,100768.02
2018-08-23T15:26:29.407Z,100768.74
2018-08-23T15:28:58.920Z,100767.56
2018-08-23T15:31:28.553Z,100769.17
2018-08-23T15:33:58.767Z,100770.36
2018-08-23T15:36:29.307Z,100772.65
2018-08-23T15:38:58.880Z,100768.87
2018-08-23T15:41:29.318Z,100763.46
2018-08-23T15:44:02.824Z,100768.65
2018-08-23T15:46:38.355Z,100761.38
2018-08-23T15:49:10.834Z,100761.55
2018-08-23T15:51:41.377Z,100761.38
2018-08-23T15:54:12.996Z,100758.61
2018-08-23T15:56:43.678Z,100751.38
2018-08-23T15:59:15.023Z,100756.25
2018-08-23T16:01:44.637Z,100760.08
2018-08-23T16:04:15.451Z,100757.03
2018-08-23T16:06:45.369Z,100755.41
2018-08-23T16:09:17.289Z,100751.08
2018-08-23T16:11:47.977Z,100753.02
2018-08-23T16:14:18.160Z,100746.25
2018-08-23T16:16:54.585Z,100751.41
2018-08-23T16:19:30.654Z,100748.13
2018-08-23T16:22:02.210Z,100746.48
2018-08-23T16:24:32.968Z,100743.94
2018-08-23T16:27:05.551Z,100741.87
2018-08-23T16:29:35.839Z,100736.41
2018-08-23T16:32:10.073Z,100738.23
2018-08-23T16:34:41.035Z,100735.73
2018-08-23T16:37:12.039Z,100729.11
2018-08-23T16:39:43.181Z,100727.30
2018-08-23T16:42:16.382Z,100729.63
2018-08-23T16:44:47.873Z,100726.38
2018-08-23T16:47:19.145Z,100722.98
2018-08-23T16:49:50.592Z,100734.13
2018-08-23T16:52:20.666Z,100732.17
2018-08-23T16:54:51.674Z,100722.23
2018-08-23T16:57:23.554Z,100720.78
2018-08-23T16:59:53.903Z,100725.77
2018-08-23T17:02:24.701Z,100728.67
2018-08-23T17:04:55.125Z,100720.22
2018-08-23T17:07:25.864Z,100714.19
2018-08-23T17:09:56.246Z,100703.88
2018-08-23T17:12:26.190Z,100707.02
2018-08-23T17:14:58.446Z,100708.91
2018-08-23T17:17:32.443Z,100704.66
2018-08-23T17:20:02.755Z,100702.91
2018-08-23T17:22:32.712Z,100701.42
2018-08-23T17:25:02.861Z,100699.94
2018-08-23T17:27:33.772Z,100692.42
2018-08-23T17:30:04.310Z,100689.95
2018-08-23T17:32:34.521Z,100687.75
2018-08-23T17:35:04.789Z,100677.25
2018-08-23T17:37:35.381Z,100679.09
2018-08-23T17:40:07.163Z,100685.00
2018-08-23T17:42:43.672Z,100675.79
2018-08-23T17:45:15.144Z,100676.06
2018-08-23T17:47:45.848Z,100672.65
2018-08-23T17:50:15.989Z,100673.92
2018-08-23T17:52:47.169Z,100663.84
2018-08-23T17:55:19.102Z,100663.95
2018-08-23T17:57:49.465Z,100670.05
2018-08-23T18:00:19.649Z,100663.85
2018-08-23T18:02:50.684Z,100664.33
2018-08-23T18:05:21.018Z,100660.06
2018-08-23T18:07:51.122Z,100664.52
2018-08-23T18:10:21.376Z,100659.68
2018-08-23T18:12:51.394Z,100664.00
2018-08-23T18:15:21.483Z,100659.38
2018-08-23T18:17:51.847Z,100662.69
2018-08-23T18:20:21.967Z,100669.16
2018-08-23T18:22:52.151Z,100663.42
2018-08-23T18:25:22.301Z,100669.05
2018-08-23T18:27:53.105Z,100666.47
2018-08-23T18:30:23.211Z,100666.67
2018-08-23T18:32:53.540Z,100659.27
2018-08-23T18:35:26.473Z,100664.53
2018-08-23T18:37:56.769Z,100658.42
2018-08-23T18:40:26.750Z,100664.63
2018-08-23T18:42:57.794Z,100671.39
2018-08-23T18:45:28.011Z,100662.56
2018-08-23T18:47:58.385Z,100671.70
2018-08-23T18:50:29.608Z,100674.16
2018-08-23T18:53:00.254Z,100680.47
2018-08-23T19:05:07.830Z,100666.64
2018-08-23T19:42:23.178Z,100657.13
2018-08-23T19:44:57.194Z,100651.69
2018-08-23T19:47:32.872Z,100655.05
2018-08-23T19:50:10.744Z,100655.13
2018-08-23T19:52:43.528Z,100656.48
2018-08-23T19:55:15.388Z,100659.98
2018-08-23T19:57:48.472Z,100651.31
2018-08-23T20:00:20.725Z,100647.66
2018-08-23T20:02:53.023Z,100645.94
2018-08-23T20:05:26.661Z,100637.25
2018-08-23T20:07:57.727Z,100644.29
2018-08-23T20:10:29.555Z,100637.47
2018-08-23T20:13:00.601Z,100639.03
2018-08-23T20:15:39.777Z,100641.13
2018-08-23T20:18:13.730Z,100631.43
2018-08-23T20:20:47.730Z,100629.23
2018-08-23T20:23:21.209Z,100630.19
2018-08-23T20:25:51.527Z,100631.48
2018-08-23T20:28:22.000Z,100629.89
2018-08-23T20:30:52.371Z,100629.89
2018-08-23T20:33:22.618Z,100626.14
2018-08-23T20:35:52.627Z,100621.20
2018-08-23T20:38:22.679Z,100619.80
2018-08-23T20:40:52.848Z,100616.37
2018-08-23T20:43:23.092Z,100616.92
2018-08-23T20:45:53.519Z,100615.30
2018-08-23T20:48:25.224Z,100611.99
2018-08-23T20:50:55.322Z,100612.42
2018-08-23T20:53:25.377Z,100611.17
2018-08-23T20:55:55.547Z,100609.03
2018-08-23T20:58:25.782Z,100606.16
2018-08-23T21:00:57.042Z,100606.94
2018-08-23T21:03:28.836Z,100592.76
2018-08-23T21:05:59.671Z,100599.27
2018-08-23T21:08:35.313Z,100592.87
2018-08-23T21:11:07.575Z,100584.43
2018-08-23T21:13:38.624Z,100584.98
2018-08-23T21:16:09.644Z,100587.09
2018-08-23T21:18:40.945Z,100589.91
2018-08-23T21:21:17.302Z,100591.64
2018-08-23T21:23:48.418Z,100594.28
2018-08-23T21:26:20.974Z,100595.93
2018-08-23T21:28:51.774Z,100600.06
2018-08-23T21:31:23.359Z,100589.86
2018-08-23T21:33:54.947Z,100593.48
2018-08-23T21:36:27.136Z,100588.61
2018-08-23T21:38:57.565Z,100583.82
2018-08-23T21:41:29.856Z,100583.96
2018-08-23T21:44:00.279Z,100585.66
2018-08-23T21:46:30.595Z,100583.39
2018-08-23T21:49:00.928Z,100568.79
2018-08-23T21:51:31.747Z,100572.73
2018-08-23T21:54:04.403Z,100569.64
2018-08-23T21:56:35.475Z,100565.00
2018-08-23T21:59:06.746Z,100560.48
2018-08-23T22:01:36.963Z,100558.83
2018-08-23T22:04:07.319Z,100550.20
2018-08-23T22:06:38.357Z,100552.94
2018-08-23T22:09:10.975Z,100550.07
2018-08-23T22:11:41.407Z,100556.18
2018-08-23T22:14:11.533Z,100559.55
2018-08-23T22:16:41.557Z,100552.48
2018-08-23T22:19:11.615Z,100556.25
2018-08-23T22:21:41.828Z,100551.27
2018-08-23T22:24:11.949Z,100547.76
2018-08-23T22:26:42.410Z,100549.01
2018-08-23T22:29:13.340Z,100543.25
2018-08-23T22:31:43.523Z,100548.92
2018-08-23T22:34:14.063Z,100554.95
2018-08-23T22:36:47.373Z,100556.08
2018-08-23T22:39:17.508Z,100556.30
2018-08-23T22:41:47.573Z,100557.61
2018-08-23T22:44:17.793Z,100549.91
2018-08-23T22:46:48.221Z,100551.00
2018-08-23T22:49:48.143Z,100551.44
2018-08-23T22:52:18.812Z,100554.91
2018-08-23T22:54:49.010Z,100548.58
2018-08-23T22:57:20.670Z,100538.16
2018-08-23T22:59:51.822Z,100542.34
2018-08-23T23:02:28.577Z,100548.20
2018-08-23T23:05:00.287Z,100543.19
2018-08-23T23:07:30.287Z,100542.08
2018-08-23T23:10:00.892Z,100546.95
2018-08-23T23:12:33.858Z,100544.05
2018-08-23T23:15:07.507Z,100540.20
2018-08-23T23:17:37.486Z,100541.84
2018-08-23T23:20:07.853Z,100535.80
2018-08-23T23:22:38.194Z,100533.59
2018-08-23T23:25:08.281Z,100527.41
2018-08-23T23:27:38.591Z,100520.99
2018-08-23T23:30:10.646Z,100517.61
2018-08-23T23:32:40.861Z,100514.24
2018-08-23T23:35:10.823Z,100509.74
2018-08-23T23:37:40.831Z,100504.08
2018-08-23T23:40:10.938Z,100499.42
2018-08-23T23:42:40.946Z,100500.37
2018-08-23T23:45:12.967Z,100492.35
2018-08-23T23:47:43.046Z,100491.52
2018-08-23T23:50:13.127Z,100485.92
2018-08-23T23:52:43.165Z,100486.55
2018-08-23T23:55:13.192Z,100485.64
2018-08-23T23:57:43.275Z,100480.51
